METAR Data
IDs: Format: Raw Decoded Include TAF

Data at: 0507 UTC 30 Jun 2022

KDHN 300453Z AUTO 11003KT 10SM CLR 23/23 A3021 RMK AO2 SLP224 T02330228 403440222 TSNO